createdAt,value
2023-01-17T00:02:21.001Z,97279.41
2023-01-17T00:05:06.826Z,97280.09
2023-01-17T00:07:52.614Z,97284.41
2023-01-17T00:10:23.784Z,97283.75
2023-01-17T00:12:57.540Z,97285.09
2023-01-17T00:15:25.871Z,97289.25
2023-01-17T00:17:53.471Z,97301.88
2023-01-17T00:20:46.727Z,97300.69
2023-01-17T00:24:00.569Z,97315.84
2023-01-17T00:26:27.663Z,97309.63
2023-01-17T00:28:54.576Z,97324.28
2023-01-17T00:31:21.532Z,97324.09
2023-01-17T00:33:48.429Z,97325.69
2023-01-17T00:36:15.343Z,97344.03
2023-01-17T00:38:42.369Z,97333.34
2023-01-17T00:41:12.391Z,97343.81
2023-01-17T00:43:58.341Z,97350.44
2023-01-17T00:46:43.914Z,97351.28
2023-01-17T00:49:29.549Z,97347.13
2023-01-17T00:52:15.353Z,97367.72
2023-01-17T00:55:00.845Z,97372.53
2023-01-17T00:57:46.533Z,97363.19
2023-01-17T01:00:33.170Z,97369.19
2023-01-17T01:03:19.174Z,97376.97
2023-01-17T01:06:04.835Z,97380.44
2023-01-17T01:08:51.143Z,97376.91
2023-01-17T01:11:39.757Z,97389.41
2023-01-17T01:14:28.230Z,97380.56
2023-01-17T01:17:14.060Z,97398.53
2023-01-17T01:19:59.729Z,97391.38
2023-01-17T01:22:45.178Z,97398.19
2023-01-17T01:25:30.819Z,97402.53
2023-01-17T01:28:30.387Z,97405.03
2023-01-17T01:31:22.414Z,97423.31
2023-01-17T01:33:51.669Z,97411.88
2023-01-17T01:36:18.604Z,97414.34
2023-01-17T01:38:46.019Z,97416.03
2023-01-17T01:41:12.955Z,97426.50
2023-01-17T01:43:50.105Z,97430.53
2023-01-17T01:46:31.210Z,97422.69
2023-01-17T01:49:21.889Z,97436.31
2023-01-17T01:52:00.088Z,97432.69
2023-01-17T01:55:11.375Z,97438.13
2023-01-17T01:57:42.649Z,97440.78
2023-01-17T02:00:34.151Z,97447.78
2023-01-17T02:03:06.409Z,97432.28
2023-01-17T02:05:35.435Z,97442.31
2023-01-17T02:08:11.090Z,97440.19
2023-01-17T02:10:40.568Z,97450.34
2023-01-17T02:13:08.645Z,97454.34
2023-01-17T02:16:18.328Z,97457.69
2023-01-17T02:19:30.999Z,97478.50
2023-01-17T02:22:42.156Z,97481.19
2023-01-17T02:25:51.100Z,97479.03
2023-01-17T02:29:14.841Z,97483.19
2023-01-17T02:31:55.346Z,97487.03
2023-01-17T02:34:51.665Z,97485.34
2023-01-17T02:37:26.808Z,97492.50
2023-01-17T02:40:02.257Z,97491.66
2023-01-17T02:42:50.660Z,97475.47
2023-01-17T02:45:20.936Z,97487.19
2023-01-17T02:47:47.875Z,97495.00
2023-01-17T02:51:03.146Z,97502.66
2023-01-17T02:54:23.725Z,97504.31
2023-01-17T02:57:32.860Z,97501.66
2023-01-17T03:00:22.269Z,97513.00
2023-01-17T03:03:04.664Z,97517.78
2023-01-17T03:05:47.875Z,97518.47
2023-01-17T03:08:16.109Z,97514.16
2023-01-17T03:10:44.625Z,97513.09
2023-01-17T03:13:11.570Z,97522.44
2023-01-17T03:15:39.951Z,97525.25
2023-01-17T03:18:14.054Z,97535.44
2023-01-17T03:20:41.377Z,97539.78
2023-01-17T03:23:08.796Z,97521.22
2023-01-17T03:25:35.785Z,97533.94
2023-01-17T03:28:03.784Z,97542.72
2023-01-17T03:30:30.812Z,97542.50
2023-01-17T03:32:57.747Z,97543.47
2023-01-17T03:35:24.791Z,97552.44
2023-01-17T03:37:51.703Z,97564.88
2023-01-17T03:40:18.726Z,97573.84
2023-01-17T03:42:45.775Z,97560.34
2023-01-17T03:45:12.712Z,97574.47
2023-01-17T03:47:39.708Z,97588.63
2023-01-17T03:50:07.000Z,97598.25
2023-01-17T03:52:34.001Z,97597.63
2023-01-17T03:55:02.651Z,97608.88
2023-01-17T03:57:29.691Z,97617.16
2023-01-17T03:59:56.618Z,97611.75
2023-01-17T04:02:24.557Z,97622.72
2023-01-17T04:04:51.535Z,97626.66
2023-01-17T04:07:18.444Z,97645.41
2023-01-17T04:09:45.412Z,97651.19
2023-01-17T04:12:12.322Z,97649.81
2023-01-17T04:14:40.853Z,97651.09
2023-01-17T04:17:14.261Z,97650.69
2023-01-17T04:19:41.274Z,97679.69
2023-01-17T04:22:08.320Z,97673.97
2023-01-17T04:24:35.241Z,97682.38
2023-01-17T04:27:03.624Z,97681.16
2023-01-17T04:29:30.533Z,97683.25
2023-01-17T04:31:57.525Z,97686.94
2023-01-17T04:34:24.641Z,97683.31
2023-01-17T04:36:51.522Z,97701.75
2023-01-17T04:39:18.460Z,97692.97
2023-01-17T04:41:45.336Z,97709.28
2023-01-17T04:44:12.281Z,97713.63
2023-01-17T04:46:39.184Z,97719.78
2023-01-17T04:49:06.152Z,97725.50
2023-01-17T04:51:33.102Z,97734.75
2023-01-17T04:54:00.044Z,97730.16
2023-01-17T04:56:27.251Z,97750.09
2023-01-17T04:58:57.078Z,97756.13
2023-01-17T05:01:24.275Z,97758.22
2023-01-17T05:03:51.238Z,97753.38
2023-01-17T05:06:18.162Z,97771.53
2023-01-17T05:08:45.074Z,97772.13
2023-01-17T05:11:11.985Z,97780.34
2023-01-17T05:13:39.079Z,97790.41
2023-01-17T05:16:06.465Z,97801.06
2023-01-17T05:18:33.477Z,97801.16
2023-01-17T05:21:04.753Z,97808.84
2023-01-17T05:23:32.997Z,97820.59
2023-01-17T05:25:59.888Z,97823.25
2023-01-17T05:28:26.917Z,97845.19
2023-01-17T05:30:53.938Z,97843.50
2023-01-17T05:33:21.126Z,97854.13
2023-01-17T05:35:48.058Z,97861.25
2023-01-17T05:38:14.986Z,97853.81
2023-01-17T05:40:41.970Z,97850.91
2023-01-17T05:43:09.166Z,97871.72
2023-01-17T05:45:36.719Z,97869.59
2023-01-17T05:48:04.130Z,97871.41
2023-01-17T05:50:37.730Z,97878.41
2023-01-17T05:53:11.693Z,97885.81
2023-01-17T05:55:40.002Z,97894.03
2023-01-17T05:58:09.143Z,97883.97
2023-01-17T06:00:37.349Z,97888.56
2023-01-17T06:03:04.407Z,97881.56
2023-01-17T06:05:31.450Z,97896.66
2023-01-17T06:07:59.143Z,97894.72
2023-01-17T06:10:28.240Z,97901.41
2023-01-17T06:13:05.753Z,97905.03
2023-01-17T06:15:34.269Z,97915.09
2023-01-17T06:18:09.949Z,97922.91
2023-01-17T06:20:37.120Z,97935.19
2023-01-17T06:23:06.419Z,97931.72
2023-01-17T06:25:45.317Z,97945.56
2023-01-17T06:28:19.172Z,97938.72
2023-01-17T06:30:46.802Z,97939.69
2023-01-17T06:33:14.060Z,97933.81
2023-01-17T06:35:47.873Z,97935.34
2023-01-17T06:38:14.818Z,97952.81
2023-01-17T06:40:41.776Z,97943.88
2023-01-17T06:43:08.670Z,97949.19
2023-01-17T06:45:36.370Z,97953.50
2023-01-17T06:48:05.434Z,97957.13
2023-01-17T06:50:33.903Z,97961.06
2023-01-17T06:53:04.209Z,97958.81
2023-01-17T06:55:33.719Z,97970.97
2023-01-17T06:58:02.793Z,97974.34
2023-01-17T07:00:40.306Z,97977.13
2023-01-17T07:03:23.487Z,97974.88
2023-01-17T07:05:50.988Z,97984.78
2023-01-17T07:08:19.215Z,97980.69
2023-01-17T07:10:48.137Z,97989.06
2023-01-17T07:13:15.294Z,97996.03
2023-01-17T07:15:42.303Z,97995.75
2023-01-17T07:18:09.273Z,97999.25
2023-01-17T07:20:36.287Z,97993.34
2023-01-17T07:23:03.288Z,98007.19
2023-01-17T07:25:30.199Z,98019.75
2023-01-17T07:27:57.457Z,98021.41
2023-01-17T07:30:24.825Z,98022.53
2023-01-17T07:32:55.832Z,98032.91
2023-01-17T07:35:26.645Z,98033.41
2023-01-17T07:37:54.545Z,98038.44
2023-01-17T07:40:22.601Z,98038.69
2023-01-17T07:42:49.508Z,98037.88
2023-01-17T07:45:17.283Z,98039.81
2023-01-17T07:47:44.530Z,98032.56
2023-01-17T07:50:12.955Z,98036.56
2023-01-17T07:52:39.920Z,98037.28
2023-01-17T07:55:07.930Z,98036.81
2023-01-17T07:57:34.838Z,98037.69
2023-01-17T08:00:01.823Z,98050.81
2023-01-17T08:02:39.175Z,98055.13
2023-01-17T08:05:06.298Z,98046.47
2023-01-17T08:07:33.178Z,98048.28
2023-01-17T08:10:01.258Z,98038.66
2023-01-17T08:12:29.528Z,98051.66
2023-01-17T08:14:56.509Z,98057.53
2023-01-17T08:17:23.410Z,98065.50
2023-01-17T08:19:52.099Z,98057.25
2023-01-17T08:22:19.434Z,98060.91
2023-01-17T08:24:46.397Z,98061.16
2023-01-17T08:27:13.275Z,98070.41
2023-01-17T08:29:47.162Z,98064.38
2023-01-17T08:32:15.168Z,98066.91
2023-01-17T08:34:42.358Z,98075.56
2023-01-17T08:37:09.559Z,98081.59
2023-01-17T08:39:36.495Z,98078.94
2023-01-17T08:42:03.458Z,98090.47
2023-01-17T08:44:30.377Z,98093.94
2023-01-17T08:46:57.370Z,98095.34
2023-01-17T08:49:24.824Z,98095.69
2023-01-17T08:51:52.675Z,98095.44
2023-01-17T08:54:19.695Z,98100.78
2023-01-17T08:56:47.550Z,98106.56
2023-01-17T08:59:14.541Z,98121.78
2023-01-17T09:01:41.965Z,98115.94
2023-01-17T09:04:09.543Z,98108.84
2023-01-17T09:06:48.326Z,98123.69
2023-01-17T09:09:18.490Z,98116.28
2023-01-17T09:11:45.369Z,98124.31
2023-01-17T09:14:13.641Z,98128.13
2023-01-17T09:16:40.726Z,98126.59
2023-01-17T09:19:07.685Z,98125.81
2023-01-17T09:21:34.583Z,98131.81
2023-01-17T09:24:01.493Z,98134.50
2023-01-17T09:26:30.737Z,98141.25
2023-01-17T09:28:58.657Z,98141.56
2023-01-17T09:31:27.076Z,98145.78
2023-01-17T09:33:55.913Z,98136.72
2023-01-17T09:36:23.932Z,98149.59
2023-01-17T09:38:59.852Z,98152.53
2023-01-17T09:41:32.760Z,98163.31
2023-01-17T09:44:33.355Z,98158.13
2023-01-17T09:47:33.290Z,98154.63
2023-01-17T09:50:09.481Z,98164.84
2023-01-17T09:52:36.382Z,98168.50
2023-01-17T09:55:07.966Z,98162.72
2023-01-17T09:58:06.932Z,98155.88
2023-01-17T10:00:55.224Z,98172.81
2023-01-17T10:03:46.635Z,98165.66
2023-01-17T10:06:36.822Z,98162.56
2023-01-17T10:09:28.741Z,98164.91
2023-01-17T10:12:16.542Z,98166.28
2023-01-17T10:15:07.089Z,98177.66
2023-01-17T10:18:06.854Z,98171.56
2023-01-17T10:20:57.810Z,98167.66
2023-01-17T10:24:25.237Z,98184.16
2023-01-17T10:26:56.292Z,98182.03
2023-01-17T10:29:27.983Z,98184.09
2023-01-17T10:32:02.957Z,98181.69
2023-01-17T10:34:52.416Z,98181.69
2023-01-17T10:37:41.714Z,98189.25
2023-01-17T10:40:43.017Z,98185.34
2023-01-17T10:43:44.094Z,98183.44
2023-01-17T10:46:33.036Z,98185.00
2023-01-17T10:49:01.241Z,98183.53
2023-01-17T10:52:23.359Z,98194.03
2023-01-17T10:55:16.902Z,98185.97
2023-01-17T10:57:48.009Z,98177.75
2023-01-17T11:00:44.030Z,98190.66
2023-01-17T11:03:14.476Z,98195.16
2023-01-17T11:05:42.703Z,98190.56
2023-01-17T11:08:14.699Z,98201.94
2023-01-17T11:10:54.169Z,98195.47
2023-01-17T11:13:31.701Z,98191.81
2023-01-17T11:16:07.010Z,98188.31
2023-01-17T11:18:38.598Z,98196.53
2023-01-17T11:21:23.257Z,98196.22
2023-01-17T11:23:56.694Z,98191.16
2023-01-17T11:26:27.783Z,98178.91
2023-01-17T11:29:32.201Z,98189.53
2023-01-17T11:32:32.107Z,98190.16
2023-01-17T11:35:09.901Z,98191.09
2023-01-17T11:37:37.714Z,98192.22
2023-01-17T11:40:44.411Z,98188.00
2023-01-17T11:43:26.469Z,98179.72
2023-01-17T11:46:17.917Z,98194.72
2023-01-17T11:48:53.434Z,98186.56
2023-01-17T11:51:33.704Z,98183.81
2023-01-17T11:54:19.914Z,98186.31
2023-01-17T11:56:46.833Z,98187.00
2023-01-17T11:59:23.976Z,98193.53
2023-01-17T12:02:31.753Z,98194.91
2023-01-17T12:05:15.279Z,98199.00
2023-01-17T12:07:59.369Z,98199.31
2023-01-17T12:10:46.497Z,98196.78
2023-01-17T12:14:01.431Z,98199.66
2023-01-17T12:17:01.548Z,98189.06
2023-01-17T12:20:05.359Z,98197.66
2023-01-17T12:23:13.846Z,98197.63
2023-01-17T12:26:20.574Z,98190.94
2023-01-17T12:29:45.180Z,98196.88
2023-01-17T12:32:17.396Z,98199.09
2023-01-17T12:34:59.066Z,98204.69
2023-01-17T12:37:40.872Z,98194.19
2023-01-17T12:40:24.506Z,98192.22
2023-01-17T12:43:01.395Z,98199.75
2023-01-17T12:45:43.075Z,98197.78
2023-01-17T12:48:18.410Z,98188.78
2023-01-17T12:51:08.916Z,98199.03
2023-01-17T12:54:13.134Z,98201.56
2023-01-17T12:56:50.807Z,98198.63
2023-01-17T12:59:44.674Z,98200.56
2023-01-17T13:02:45.151Z,98192.69
2023-01-17T13:05:23.883Z,98197.59
2023-01-17T13:07:59.340Z,98206.38
2023-01-17T13:10:47.748Z,98205.81
2023-01-17T13:13:26.003Z,98208.22
2023-01-17T13:16:15.034Z,98205.28
2023-01-17T13:18:49.364Z,98214.09
2023-01-17T13:21:30.041Z,98222.34
2023-01-17T13:24:01.921Z,98208.69
2023-01-17T13:27:02.686Z,98215.06
2023-01-17T13:29:53.397Z,98209.44
2023-01-17T13:32:45.577Z,98215.59
2023-01-17T13:35:58.061Z,98229.06
2023-01-17T13:39:12.148Z,98233.06
2023-01-17T13:41:52.710Z,98236.56
2023-01-17T13:44:22.887Z,98242.25
2023-01-17T13:47:11.271Z,98241.28
2023-01-17T13:49:40.962Z,98253.09
2023-01-17T13:52:19.912Z,98240.31
2023-01-17T13:54:47.705Z,98250.75
2023-01-17T13:57:23.447Z,98249.34
2023-01-17T13:59:50.585Z,98243.63
2023-01-17T14:02:32.429Z,98250.47
2023-01-17T14:05:08.244Z,98252.44
2023-01-17T14:07:57.535Z,98251.22
2023-01-17T14:10:33.977Z,98241.25
2023-01-17T14:13:02.015Z,98250.78
2023-01-17T14:15:32.671Z,98251.22
2023-01-17T14:18:03.027Z,98237.81
2023-01-17T14:20:47.139Z,98258.69
2023-01-17T14:23:35.502Z,98260.38
2023-01-17T14:26:23.686Z,98256.72
2023-01-17T14:28:52.484Z,98253.09
2023-01-17T14:31:22.544Z,98259.56
2023-01-17T14:33:49.666Z,98258.13
2023-01-17T14:36:30.764Z,98253.94
2023-01-17T14:38:57.724Z,98263.88
2023-01-17T14:41:28.317Z,98260.13
2023-01-17T14:43:56.255Z,98258.88
2023-01-17T14:46:28.101Z,98254.41
2023-01-17T14:49:14.040Z,98257.88
2023-01-17T14:51:40.944Z,98259.59
2023-01-17T14:54:21.769Z,98257.91
2023-01-17T14:56:48.697Z,98251.44
2023-01-17T14:59:22.102Z,98247.63
2023-01-17T15:02:07.519Z,98261.38
2023-01-17T15:04:39.327Z,98253.25
2023-01-17T15:07:07.408Z,98244.25
2023-01-17T15:09:37.262Z,98246.94
2023-01-17T15:12:05.157Z,98252.50
2023-01-17T15:14:41.436Z,98250.69
2023-01-17T15:17:24.411Z,98253.53
2023-01-17T15:19:58.599Z,98250.56
2023-01-17T15:22:26.790Z,98258.16
2023-01-17T15:24:54.435Z,98249.75
2023-01-17T15:27:21.547Z,98257.47
2023-01-17T15:29:48.728Z,98267.84
2023-01-17T15:32:27.825Z,98266.00
2023-01-17T15:34:54.822Z,98266.00
2023-01-17T15:37:34.179Z,98276.38
2023-01-17T15:40:25.658Z,98268.06
2023-01-17T15:43:05.063Z,98264.84
2023-01-17T15:45:33.733Z,98278.81
2023-01-17T15:48:36.189Z,98272.66
2023-01-17T15:51:03.095Z,98281.88
2023-01-17T15:53:33.844Z,98282.41
2023-01-17T15:56:01.086Z,98293.22
2023-01-17T15:58:30.299Z,98295.88
2023-01-17T16:00:57.494Z,98298.38
2023-01-17T16:03:29.344Z,98288.00
2023-01-17T16:06:00.216Z,98302.66
2023-01-17T16:08:39.534Z,98297.06
2023-01-17T16:11:08.607Z,98310.34
2023-01-17T16:13:42.838Z,98302.91
2023-01-17T16:16:23.832Z,98316.16
2023-01-17T16:19:00.241Z,98316.38
2023-01-17T16:21:30.514Z,98325.44
2023-01-17T16:23:58.495Z,98318.97
2023-01-17T16:26:25.674Z,98326.75
2023-01-17T16:28:52.588Z,98320.16
2023-01-17T16:31:19.789Z,98328.38
2023-01-17T16:33:49.454Z,98326.09
2023-01-17T16:36:16.978Z,98326.38
2023-01-17T16:38:45.469Z,98332.91
2023-01-17T16:41:12.425Z,98328.84
2023-01-17T16:43:39.423Z,98325.84
2023-01-17T16:46:06.795Z,98335.75
2023-01-17T16:48:33.754Z,98345.19
2023-01-17T16:51:06.874Z,98348.22
2023-01-17T16:53:34.790Z,98344.75
2023-01-17T16:56:12.055Z,98351.25
2023-01-17T16:58:39.649Z,98345.88
2023-01-17T17:01:16.111Z,98353.72
2023-01-17T17:03:43.836Z,98354.34
2023-01-17T17:06:11.339Z,98359.66
2023-01-17T17:08:39.621Z,98368.69
2023-01-17T17:11:26.820Z,98368.00
2023-01-17T17:13:53.886Z,98370.66
2023-01-17T17:16:29.752Z,98371.84
2023-01-17T17:19:03.856Z,98373.69
2023-01-17T17:21:32.030Z,98371.84
2023-01-17T17:24:01.073Z,98371.25
2023-01-17T17:26:34.049Z,98377.44
2023-01-17T17:29:02.074Z,98375.38
2023-01-17T17:31:29.087Z,98390.34
2023-01-17T17:34:04.244Z,98391.19
2023-01-17T17:36:31.356Z,98400.97
2023-01-17T17:38:58.751Z,98398.81
2023-01-17T17:41:39.244Z,98406.88
2023-01-17T17:44:06.229Z,98400.47
2023-01-17T17:46:33.858Z,98405.91
2023-01-17T17:49:01.731Z,98398.91
2023-01-17T17:51:33.759Z,98396.63
2023-01-17T17:54:10.439Z,98400.00
2023-01-17T17:56:38.190Z,98406.16
2023-01-17T17:59:08.151Z,98394.34
2023-01-17T18:01:38.216Z,98398.69
2023-01-17T18:04:07.482Z,98406.31
2023-01-17T18:06:35.819Z,98410.03
2023-01-17T18:09:03.461Z,98410.03
2023-01-17T18:11:30.975Z,98397.13
2023-01-17T18:14:01.477Z,98403.06
2023-01-17T18:16:32.606Z,98396.66
2023-01-17T18:18:59.975Z,98396.53
2023-01-17T18:21:31.324Z,98394.50
2023-01-17T18:24:08.303Z,98401.97
2023-01-17T18:26:47.754Z,98406.53
2023-01-17T18:29:17.641Z,98406.19
2023-01-17T18:31:46.129Z,98410.91
2023-01-17T18:34:16.896Z,98415.13
2023-01-17T18:36:44.095Z,98414.50
2023-01-17T18:39:15.332Z,98429.56
2023-01-17T18:41:42.779Z,98415.69
2023-01-17T18:44:10.614Z,98410.03
2023-01-17T18:46:38.707Z,98409.69
2023-01-17T18:49:06.236Z,98429.66
2023-01-17T18:51:34.478Z,98408.34
2023-01-17T18:54:06.781Z,98407.88
2023-01-17T18:56:34.991Z,98412.81
2023-01-17T18:59:03.066Z,98423.16
2023-01-17T19:01:35.386Z,98432.56
2023-01-17T19:04:05.071Z,98447.41
2023-01-17T19:06:38.508Z,98440.88
2023-01-17T19:09:08.356Z,98451.84
2023-01-17T19:11:36.728Z,98454.84
2023-01-17T19:14:04.496Z,98445.53
2023-01-17T19:16:36.054Z,98452.41
2023-01-17T19:19:07.558Z,98458.81
2023-01-17T19:21:34.747Z,98444.81
2023-01-17T19:24:02.812Z,98462.22
2023-01-17T19:26:30.032Z,98461.22
2023-01-17T19:29:03.676Z,98470.56
2023-01-17T19:31:32.596Z,98459.91
2023-01-17T19:34:00.062Z,98465.56
2023-01-17T19:36:32.055Z,98456.25
2023-01-17T19:39:04.864Z,98449.78
2023-01-17T19:41:35.001Z,98449.94
2023-01-17T19:44:07.938Z,98463.34
2023-01-17T19:46:36.034Z,98461.75
2023-01-17T19:49:05.276Z,98459.47
2023-01-17T19:51:32.261Z,98457.53
2023-01-17T19:54:04.039Z,98468.25
2023-01-17T19:56:31.117Z,98467.50
2023-01-17T19:59:01.760Z,98470.03
2023-01-17T20:01:32.093Z,98474.22
2023-01-17T20:04:01.720Z,98482.03
2023-01-17T20:06:32.262Z,98485.25
2023-01-17T20:08:59.450Z,98478.84
2023-01-17T20:11:28.396Z,98487.28
2023-01-17T20:13:57.571Z,98491.09
2023-01-17T20:16:27.321Z,98495.28
2023-01-17T20:18:54.466Z,98484.16
2023-01-17T20:21:24.589Z,98494.75
2023-01-17T20:23:53.134Z,98493.59
2023-01-17T20:26:24.970Z,98484.13
2023-01-17T20:28:53.241Z,98489.63
2023-01-17T20:31:25.480Z,98492.84
2023-01-17T20:33:56.257Z,98497.53
2023-01-17T20:36:26.861Z,98499.66
2023-01-17T20:38:54.403Z,98505.38
2023-01-17T20:41:29.842Z,98505.38
2023-01-17T20:43:59.799Z,98502.75
2023-01-17T20:46:36.867Z,98499.34
2023-01-17T20:49:07.507Z,98498.72
2023-01-17T20:51:35.049Z,98503.06
2023-01-17T20:54:05.235Z,98510.78
2023-01-17T20:56:37.642Z,98498.88
2023-01-17T20:59:09.297Z,98502.09
2023-01-17T21:01:38.061Z,98501.63
2023-01-17T21:04:10.006Z,98502.31
2023-01-17T21:06:39.569Z,98499.13
2023-01-17T21:09:08.821Z,98504.00
2023-01-17T21:11:36.947Z,98504.19
2023-01-17T21:14:06.404Z,98504.75
2023-01-17T21:16:34.212Z,98502.53
2023-01-17T21:19:01.944Z,98503.13
2023-01-17T21:21:29.878Z,98508.19
2023-01-17T21:23:59.142Z,98518.16
2023-01-17T21:26:28.578Z,98519.56
2023-01-17T21:28:56.412Z,98525.19
2023-01-17T21:31:29.509Z,98522.97
2023-01-17T21:34:06.426Z,98539.47
2023-01-17T21:36:39.676Z,98533.34
2023-01-17T21:39:11.510Z,98532.72
2023-01-17T21:41:41.280Z,98527.19
2023-01-17T21:44:14.985Z,98536.06
2023-01-17T21:46:42.211Z,98534.47
2023-01-17T21:49:11.876Z,98523.16
2023-01-17T21:51:52.662Z,98528.25
2023-01-17T21:54:48.933Z,98529.19
2023-01-17T21:57:38.560Z,98534.47
2023-01-17T22:00:08.920Z,98533.97
2023-01-17T22:02:39.668Z,98535.56
2023-01-17T22:05:08.304Z,98539.59
2023-01-17T22:07:35.381Z,98535.78
2023-01-17T22:10:02.342Z,98550.63
2023-01-17T22:12:29.242Z,98548.38
2023-01-17T22:14:56.147Z,98541.63
2023-01-17T22:17:23.206Z,98547.66
2023-01-17T22:19:50.114Z,98551.25
2023-01-17T22:22:17.043Z,98556.13
2023-01-17T22:24:43.929Z,98545.53
2023-01-17T22:27:10.861Z,98563.72
2023-01-17T22:29:38.108Z,98578.22
2023-01-17T22:32:05.297Z,98575.25
2023-01-17T22:34:32.201Z,98566.91
2023-01-17T22:37:00.344Z,98578.03
2023-01-17T22:39:27.371Z,98589.53
2023-01-17T22:41:54.339Z,98585.09
2023-01-17T22:44:21.309Z,98574.63
2023-01-17T22:46:48.250Z,98569.66
2023-01-17T22:49:16.787Z,98579.78
2023-01-17T22:51:43.743Z,98583.19
2023-01-17T22:54:11.432Z,98580.44
2023-01-17T22:56:38.355Z,98577.78
2023-01-17T22:59:11.237Z,98579.41
2023-01-17T23:01:40.616Z,98589.84
2023-01-17T23:04:12.440Z,98592.28
2023-01-17T23:06:40.909Z,98599.38
2023-01-17T23:09:11.804Z,98595.16
2023-01-17T23:11:43.141Z,98584.78
2023-01-17T23:14:30.887Z,98597.25
2023-01-17T23:17:18.437Z,98599.16
2023-01-17T23:19:49.275Z,98607.19
2023-01-17T23:22:20.290Z,98604.84
2023-01-17T23:25:11.012Z,98605.72
2023-01-17T23:28:02.972Z,98615.41
2023-01-17T23:30:40.159Z,98609.50
2023-01-17T23:33:15.763Z,98607.09
2023-01-17T23:35:45.496Z,98608.78
2023-01-17T23:38:29.043Z,98614.78
2023-01-17T23:41:26.802Z,98608.78
2023-01-17T23:43:58.855Z,98601.25
2023-01-17T23:46:26.870Z,98619.44
2023-01-17T23:48:55.161Z,98609.19
2023-01-17T23:51:22.369Z,98610.22
2023-01-17T23:53:50.876Z,98606.97
2023-01-17T23:56:23.034Z,98618.38
2023-01-17T23:58:50.219Z,98617.00
